createdAt,value
2018-10-09T00:00:29.604Z,96.34
2018-10-09T00:02:57.245Z,96.12
2018-10-09T00:05:24.936Z,96.37
2018-10-09T00:07:52.616Z,96.42
2018-10-09T00:10:20.388Z,96.49
2018-10-09T00:12:48.064Z,96.41
2018-10-09T00:15:15.721Z,96.11
2018-10-09T00:17:43.373Z,96.27
2018-10-09T00:20:14.303Z,96.27
2018-10-09T00:22:42.012Z,96.22
2018-10-09T00:25:09.671Z,96.41
2018-10-09T00:27:37.333Z,96.47
2018-10-09T00:30:05.004Z,96.51
2018-10-09T00:32:32.653Z,96.71
2018-10-09T00:35:00.306Z,96.88
2018-10-09T00:37:27.940Z,96.46
2018-10-09T00:39:55.639Z,96.50
2018-10-09T00:42:23.285Z,96.38
2018-10-09T00:44:50.916Z,96.46
2018-10-09T00:47:18.608Z,96.54
2018-10-09T00:49:46.228Z,96.38
2018-10-09T00:52:13.860Z,96.11
2018-10-09T00:54:41.527Z,96.10
2018-10-09T00:57:09.196Z,95.86
2018-10-09T00:59:36.862Z,96.06
2018-10-09T01:02:04.551Z,95.80
2018-10-09T01:04:32.221Z,95.92
2018-10-09T01:06:59.840Z,95.61
2018-10-09T01:09:27.473Z,95.58
2018-10-09T01:11:55.245Z,94.93
2018-10-09T01:14:22.860Z,95.14
2018-10-09T01:16:50.504Z,94.70
2018-10-09T01:19:18.186Z,94.91
2018-10-09T01:21:45.819Z,95.10
2018-10-09T01:24:13.461Z,94.76
2018-10-09T01:26:41.233Z,94.72
2018-10-09T01:29:08.896Z,94.83
2018-10-09T01:31:36.513Z,95.13
2018-10-09T01:34:04.181Z,95.19
2018-10-09T01:36:31.800Z,95.16
2018-10-09T01:38:59.458Z,95.45
2018-10-09T01:41:27.104Z,95.46
2018-10-09T01:43:54.760Z,95.43
2018-10-09T01:46:22.432Z,95.23
2018-10-09T01:48:50.057Z,95.18
2018-10-09T01:51:17.716Z,95.20
2018-10-09T01:53:45.373Z,95.20
2018-10-09T01:56:13.029Z,95.00
2018-10-09T01:58:40.652Z,95.43
2018-10-09T02:01:08.290Z,95.81
2018-10-09T02:03:35.929Z,95.36
2018-10-09T02:06:03.597Z,95.44
2018-10-09T02:08:31.380Z,95.20
2018-10-09T02:10:59.124Z,95.14
2018-10-09T02:13:26.754Z,95.51
2018-10-09T02:15:54.433Z,95.50
2018-10-09T02:18:22.061Z,95.23
2018-10-09T02:20:49.681Z,95.40
2018-10-09T02:23:17.392Z,95.52
2018-10-09T02:25:45.010Z,95.21
2018-10-09T02:28:12.668Z,95.24
2018-10-09T02:30:40.297Z,95.55
2018-10-09T02:33:08.045Z,95.61
2018-10-09T02:35:35.668Z,95.24
2018-10-09T02:38:03.296Z,95.42
2018-10-09T02:40:30.983Z,95.12
2018-10-09T02:42:58.609Z,95.37
2018-10-09T02:45:26.239Z,95.80
2018-10-09T02:47:53.936Z,95.54
2018-10-09T02:50:21.581Z,95.46
2018-10-09T02:52:49.221Z,95.39
2018-10-09T02:55:16.882Z,95.14
2018-10-09T02:57:44.824Z,95.53
2018-10-09T03:00:12.485Z,95.32
2018-10-09T03:02:40.164Z,95.55
2018-10-09T03:05:07.849Z,95.61
2018-10-09T03:07:35.520Z,95.85
2018-10-09T03:10:03.316Z,95.81
2018-10-09T03:12:30.956Z,95.64
2018-10-09T03:14:58.633Z,95.52
2018-10-09T03:17:26.294Z,95.30
2018-10-09T03:19:53.949Z,95.55
2018-10-09T03:22:21.620Z,95.21
2018-10-09T03:24:49.301Z,95.49
2018-10-09T03:27:16.924Z,95.40
2018-10-09T03:29:44.544Z,95.02
2018-10-09T03:32:12.237Z,95.42
2018-10-09T03:34:39.872Z,95.34
2018-10-09T03:37:07.496Z,95.26
2018-10-09T03:39:35.178Z,95.15
2018-10-09T03:42:02.900Z,94.67
2018-10-09T03:44:30.549Z,95.17
2018-10-09T03:46:58.216Z,95.39
2018-10-09T03:49:25.848Z,95.03
2018-10-09T03:51:53.488Z,94.93
2018-10-09T03:54:21.128Z,95.32
2018-10-09T03:56:48.762Z,95.19
2018-10-09T03:59:16.492Z,95.20
2018-10-09T04:01:44.133Z,94.99
2018-10-09T04:04:11.754Z,94.91
2018-10-09T04:06:39.455Z,94.99
2018-10-09T04:09:09.407Z,95.24
2018-10-09T04:11:37.009Z,94.94
2018-10-09T04:14:04.705Z,94.84
2018-10-09T04:16:32.336Z,94.93
2018-10-09T04:19:00.142Z,95.51
2018-10-09T04:21:27.788Z,95.12
2018-10-09T04:23:55.413Z,95.10
2018-10-09T04:26:23.034Z,95.37
2018-10-09T04:28:50.696Z,95.47
2018-10-09T04:31:18.341Z,95.01
2018-10-09T04:33:45.987Z,95.16
2018-10-09T04:36:13.625Z,94.81
2018-10-09T04:38:41.256Z,94.97
2018-10-09T04:41:08.894Z,94.24
2018-10-09T04:43:36.591Z,94.05
2018-10-09T04:46:04.216Z,94.40
2018-10-09T04:48:31.908Z,94.39
2018-10-09T04:50:59.545Z,94.64
2018-10-09T04:53:27.196Z,94.13
2018-10-09T04:55:54.860Z,94.56
2018-10-09T04:58:22.498Z,94.52
2018-10-09T05:00:50.405Z,94.60
2018-10-09T05:03:18.045Z,94.25
2018-10-09T05:05:45.680Z,94.43
2018-10-09T05:08:13.316Z,94.53
2018-10-09T05:10:40.978Z,94.21
2018-10-09T05:13:08.662Z,94.21
2018-10-09T05:15:36.388Z,94.52
2018-10-09T05:18:04.025Z,94.40
2018-10-09T05:20:31.748Z,94.19
2018-10-09T05:22:59.368Z,94.11
2018-10-09T05:25:27.021Z,94.32
2018-10-09T05:27:54.668Z,94.15
2018-10-09T05:30:22.360Z,93.94
2018-10-09T05:32:50.036Z,94.43
2018-10-09T05:35:17.706Z,94.35
2018-10-09T05:37:45.419Z,94.28
2018-10-09T05:40:13.098Z,94.04
2018-10-09T05:42:40.753Z,94.54
2018-10-09T05:45:08.773Z,94.09
2018-10-09T05:47:36.496Z,94.34
2018-10-09T05:50:05.208Z,94.45
2018-10-09T05:52:33.534Z,94.37
2018-10-09T05:55:01.147Z,94.44
2018-10-09T05:57:28.769Z,94.34
2018-10-09T05:59:56.474Z,94.60
2018-10-09T06:02:24.149Z,94.01
2018-10-09T06:04:51.776Z,94.06
2018-10-09T06:07:19.456Z,94.26
2018-10-09T06:09:47.161Z,94.19
2018-10-09T06:12:14.945Z,94.64
2018-10-09T06:14:42.605Z,94.22
2018-10-09T06:17:10.308Z,94.55
2018-10-09T06:19:37.935Z,94.56
2018-10-09T06:22:05.739Z,94.77
2018-10-09T06:24:33.417Z,94.60
2018-10-09T06:27:01.038Z,94.76
2018-10-09T06:29:28.679Z,94.70
2018-10-09T06:31:56.336Z,94.48
2018-10-09T06:34:24.034Z,94.12
2018-10-09T06:36:51.712Z,94.14
2018-10-09T06:39:19.340Z,94.31
2018-10-09T06:41:47.020Z,94.02
2018-10-09T06:44:14.665Z,93.87
2018-10-09T06:46:42.369Z,93.98
2018-10-09T06:49:10.025Z,94.09
2018-10-09T06:51:37.668Z,93.95
2018-10-09T06:54:05.453Z,94.22
2018-10-09T06:56:33.044Z,94.23
2018-10-09T06:59:00.676Z,94.17
2018-10-09T07:01:28.309Z,94.12
2018-10-09T07:03:55.949Z,94.42
2018-10-09T07:06:23.597Z,93.84
2018-10-09T07:08:51.266Z,94.18
2018-10-09T07:11:19.048Z,94.03
2018-10-09T07:13:46.599Z,94.00
2018-10-09T07:16:14.253Z,93.93
2018-10-09T07:18:41.917Z,94.16
2018-10-09T07:21:09.549Z,94.06
2018-10-09T07:23:37.237Z,93.55
2018-10-09T07:26:04.908Z,94.04
2018-10-09T07:28:32.542Z,93.91
2018-10-09T07:31:00.238Z,93.93
2018-10-09T07:33:27.872Z,94.20
2018-10-09T07:35:55.545Z,94.77
2018-10-09T07:38:23.453Z,94.80
2018-10-09T07:40:51.081Z,94.87
2018-10-09T07:43:18.855Z,95.03
2018-10-09T07:45:46.509Z,95.00
2018-10-09T07:48:14.136Z,95.39
2018-10-09T07:50:41.812Z,95.40
2018-10-09T07:53:09.448Z,95.16
2018-10-09T07:55:37.085Z,95.11
2018-10-09T07:58:04.735Z,94.78
2018-10-09T08:00:32.389Z,95.13
2018-10-09T08:03:00.013Z,94.80
2018-10-09T08:05:27.682Z,94.92
2018-10-09T08:07:55.332Z,94.85
2018-10-09T08:10:23.081Z,94.65
2018-10-09T08:12:50.705Z,94.69
2018-10-09T08:15:18.365Z,95.06
2018-10-09T08:17:45.997Z,94.68
2018-10-09T08:20:13.634Z,94.75
2018-10-09T08:22:41.461Z,94.62
2018-10-09T08:25:09.026Z,94.55
2018-10-09T08:27:36.676Z,94.64
2018-10-09T08:30:04.479Z,95.40
2018-10-09T08:32:32.121Z,95.25
2018-10-09T08:34:59.764Z,95.05
2018-10-09T08:37:27.469Z,95.31
2018-10-09T08:39:55.118Z,94.84
2018-10-09T08:42:22.792Z,94.86
2018-10-09T08:44:50.482Z,94.65
2018-10-09T08:47:18.101Z,94.38
2018-10-09T08:49:45.791Z,94.10
2018-10-09T08:52:13.485Z,93.88
2018-10-09T08:54:41.155Z,93.57
2018-10-09T08:57:08.818Z,93.62
2018-10-09T08:59:36.523Z,93.41
2018-10-09T09:02:04.172Z,93.61
2018-10-09T09:04:31.848Z,93.69
2018-10-09T09:06:59.622Z,93.81
2018-10-09T09:09:27.302Z,93.66
2018-10-09T09:11:54.955Z,93.47
2018-10-09T09:14:22.626Z,93.13
2018-10-09T09:16:50.264Z,93.43
2018-10-09T09:19:17.989Z,92.93
2018-10-09T09:21:45.598Z,92.81
2018-10-09T09:24:13.218Z,91.91
2018-10-09T09:26:41.001Z,91.62
2018-10-09T09:29:08.641Z,91.45
2018-10-09T09:31:36.301Z,91.45
2018-10-09T09:34:03.941Z,90.59
2018-10-09T09:36:31.622Z,91.18
2018-10-09T09:38:59.252Z,90.91
2018-10-09T09:41:27.319Z,90.65
2018-10-09T09:43:54.969Z,91.30
2018-10-09T09:46:22.751Z,90.54
2018-10-09T09:48:50.389Z,91.29
2018-10-09T09:51:18.022Z,90.86
2018-10-09T09:53:45.737Z,90.43
2018-10-09T09:56:13.564Z,90.50
2018-10-09T09:58:41.380Z,90.59
2018-10-09T10:01:10.178Z,90.44
2018-10-09T10:03:39.102Z,90.21
2018-10-09T10:06:07.173Z,90.61
2018-10-09T10:08:34.881Z,90.23
2018-10-09T10:11:02.760Z,90.10
2018-10-09T10:13:30.566Z,89.53
2018-10-09T10:15:58.370Z,89.24
2018-10-09T10:18:26.685Z,89.56
2018-10-09T10:20:54.458Z,89.74
2018-10-09T10:23:22.365Z,88.04
2018-10-09T10:25:50.006Z,88.34
2018-10-09T10:28:17.877Z,88.66
2018-10-09T10:30:45.864Z,89.21
2018-10-09T10:33:13.809Z,88.71
2018-10-09T10:35:41.498Z,88.26
2018-10-09T10:38:09.100Z,87.84
2018-10-09T10:40:36.827Z,87.94
2018-10-09T10:43:04.549Z,88.73
2018-10-09T10:45:32.213Z,88.57
2018-10-09T10:47:59.918Z,88.23
2018-10-09T10:50:27.637Z,88.37
2018-10-09T10:52:55.244Z,87.23
2018-10-09T10:55:22.901Z,86.04
2018-10-09T10:57:50.628Z,86.36
2018-10-09T11:00:19.544Z,86.99
2018-10-09T11:02:47.192Z,86.62
2018-10-09T11:05:14.925Z,86.45
2018-10-09T11:07:42.613Z,87.07
2018-10-09T11:10:10.281Z,84.70
2018-10-09T11:12:37.969Z,85.96
2018-10-09T11:15:05.657Z,86.51
2018-10-09T11:17:34.216Z,86.43
2018-10-09T11:20:01.837Z,86.76
2018-10-09T11:22:29.497Z,85.76
2018-10-09T11:24:57.126Z,84.20
2018-10-09T11:27:24.793Z,82.99
2018-10-09T11:29:52.464Z,85.35
2018-10-09T11:32:20.116Z,84.54
2018-10-09T11:34:47.793Z,84.55
2018-10-09T11:37:15.425Z,83.79
2018-10-09T11:39:43.141Z,84.18
2018-10-09T11:42:10.770Z,83.59
2018-10-09T11:44:38.413Z,84.29
2018-10-09T11:47:06.206Z,83.87
2018-10-09T11:49:33.893Z,84.59
2018-10-09T11:52:01.545Z,84.70
2018-10-09T11:54:29.190Z,84.42
2018-10-09T11:56:56.852Z,83.48
2018-10-09T11:59:24.486Z,83.44
2018-10-09T12:01:52.195Z,83.36
2018-10-09T12:04:19.882Z,81.76
2018-10-09T12:06:47.512Z,82.66
2018-10-09T12:09:15.192Z,83.90
2018-10-09T12:11:42.863Z,83.67
2018-10-09T12:14:11.461Z,83.16
2018-10-09T12:16:39.117Z,83.85
2018-10-09T12:19:06.835Z,83.60
2018-10-09T12:21:34.657Z,84.10
2018-10-09T12:24:02.253Z,83.34
2018-10-09T12:26:29.925Z,82.69
2018-10-09T12:28:57.579Z,82.75
2018-10-09T12:31:25.242Z,83.00
2018-10-09T12:33:52.907Z,82.71
2018-10-09T12:36:20.604Z,82.74
2018-10-09T12:38:48.232Z,83.75
2018-10-09T12:41:15.894Z,84.17
2018-10-09T12:43:43.705Z,83.44
2018-10-09T12:46:11.452Z,83.70
2018-10-09T12:48:39.118Z,83.37
2018-10-09T12:51:06.793Z,84.53
2018-10-09T12:53:34.512Z,83.02
2018-10-09T12:56:02.189Z,83.57
2018-10-09T12:58:29.835Z,83.62
2018-10-09T13:00:57.487Z,83.14
2018-10-09T13:03:25.314Z,83.91
2018-10-09T13:05:53.378Z,83.93
2018-10-09T13:08:21.012Z,84.15
2018-10-09T13:10:48.657Z,84.51
2018-10-09T13:13:16.332Z,84.85
2018-10-09T13:15:43.999Z,83.78
2018-10-09T13:18:11.621Z,84.56
2018-10-09T13:20:39.256Z,84.16
2018-10-09T13:23:07.007Z,83.70
2018-10-09T13:25:34.618Z,83.46
2018-10-09T13:28:02.299Z,83.88
2018-10-09T13:30:30.025Z,84.06
2018-10-09T13:32:57.665Z,84.18
2018-10-09T13:35:25.308Z,83.30
2018-10-09T13:37:52.956Z,83.91
2018-10-09T13:40:20.671Z,83.76
2018-10-09T13:42:48.293Z,84.04
2018-10-09T13:45:15.961Z,84.05
2018-10-09T13:47:43.738Z,83.91
2018-10-09T13:50:11.313Z,84.61
2018-10-09T13:52:39.075Z,84.24
2018-10-09T13:55:06.891Z,83.95
2018-10-09T13:57:34.817Z,84.18
2018-10-09T14:00:02.714Z,84.81
2018-10-09T14:02:30.403Z,85.29
2018-10-09T14:04:58.946Z,85.00
2018-10-09T14:07:26.744Z,84.95
2018-10-09T14:10:00.717Z,85.10
2018-10-09T14:12:30.257Z,84.90
2018-10-09T14:14:58.038Z,85.48
2018-10-09T14:17:25.803Z,85.20
2018-10-09T14:19:53.513Z,85.32
2018-10-09T14:22:21.213Z,84.68
2018-10-09T14:24:48.964Z,85.33
2018-10-09T14:27:16.601Z,85.29
2018-10-09T14:29:44.301Z,84.63
2018-10-09T14:32:12.246Z,85.58
2018-10-09T14:34:39.881Z,85.78
2018-10-09T14:37:07.550Z,85.49
2018-10-09T14:39:35.368Z,85.72
2018-10-09T14:42:03.017Z,85.91
2018-10-09T14:44:30.633Z,86.08
2018-10-09T14:46:58.296Z,86.03
2018-10-09T14:49:25.918Z,85.30
2018-10-09T14:51:53.684Z,85.29
2018-10-09T14:54:21.535Z,86.13
2018-10-09T14:56:49.256Z,86.32
2018-10-09T14:59:16.913Z,86.50
2018-10-09T15:01:44.592Z,86.51
2018-10-09T15:04:12.221Z,86.14
2018-10-09T15:06:39.972Z,86.84
2018-10-09T15:09:11.944Z,87.08
2018-10-09T15:11:39.770Z,87.43
2018-10-09T15:14:07.554Z,87.42
2018-10-09T15:16:35.476Z,87.87
2018-10-09T15:19:03.171Z,87.71
2018-10-09T15:21:30.793Z,87.00
2018-10-09T15:23:58.429Z,87.26
2018-10-09T15:26:26.247Z,86.93
2018-10-09T15:28:53.944Z,87.54
2018-10-09T15:31:23.416Z,87.85
2018-10-09T15:33:52.093Z,86.84
2018-10-09T15:36:19.807Z,87.29
2018-10-09T15:38:47.598Z,87.19
2018-10-09T15:41:15.497Z,87.50
2018-10-09T15:43:43.120Z,87.40
2018-10-09T15:46:10.828Z,87.48
2018-10-09T15:48:38.497Z,87.52
2018-10-09T15:51:06.331Z,88.07
2018-10-09T15:53:33.976Z,87.67
2018-10-09T15:56:01.720Z,88.01
2018-10-09T15:58:29.366Z,87.92
2018-10-09T16:00:56.983Z,87.66
2018-10-09T16:03:24.702Z,87.13
2018-10-09T16:05:52.384Z,87.81
2018-10-09T16:08:20.025Z,87.94
2018-10-09T16:10:47.644Z,88.56
2018-10-09T16:13:15.270Z,88.26
2018-10-09T16:15:42.997Z,88.38
2018-10-09T16:18:10.697Z,88.57
2018-10-09T16:20:38.353Z,88.86
2018-10-09T16:23:06.092Z,89.37
2018-10-09T16:25:33.743Z,88.71
2018-10-09T16:28:01.453Z,88.70
2018-10-09T16:30:29.141Z,88.35
2018-10-09T16:32:56.901Z,88.02
2018-10-09T16:35:24.545Z,87.95
2018-10-09T16:37:52.189Z,87.91
2018-10-09T16:40:19.870Z,88.59
2018-10-09T16:42:47.526Z,88.48
2018-10-09T16:45:15.161Z,88.21
2018-10-09T16:47:42.877Z,88.61
2018-10-09T16:50:10.553Z,88.76
2018-10-09T16:52:38.177Z,88.79
2018-10-09T16:55:05.893Z,89.09
2018-10-09T16:57:33.507Z,88.78
2018-10-09T17:00:01.177Z,89.16
2018-10-09T17:02:28.794Z,89.42
2018-10-09T17:04:56.460Z,89.19
2018-10-09T17:07:24.089Z,89.08
2018-10-09T17:09:51.776Z,88.93
2018-10-09T17:12:19.393Z,89.49
2018-10-09T17:14:47.373Z,89.42
2018-10-09T17:17:15.029Z,89.73
2018-10-09T17:19:42.666Z,89.68
2018-10-09T17:22:10.382Z,90.29
2018-10-09T17:24:38.008Z,90.45
2018-10-09T17:27:05.654Z,90.55
2018-10-09T17:29:33.312Z,90.63
2018-10-09T17:32:00.942Z,90.20
2018-10-09T17:34:28.598Z,90.19
2018-10-09T17:36:56.278Z,90.10
2018-10-09T17:39:24.048Z,90.20
2018-10-09T17:41:52.600Z,89.85
2018-10-09T17:44:20.249Z,90.13
2018-10-09T17:46:48.002Z,90.60
2018-10-09T17:49:15.573Z,90.53
2018-10-09T17:51:43.228Z,90.19
2018-10-09T17:54:10.880Z,90.61
2018-10-09T17:56:38.526Z,90.55
2018-10-09T17:59:06.345Z,90.45
2018-10-09T18:01:33.999Z,90.53
2018-10-09T18:04:01.634Z,90.71
2018-10-09T18:06:29.438Z,90.41
2018-10-09T18:08:57.163Z,90.64
2018-10-09T18:11:25.164Z,90.91
2018-10-09T18:13:52.842Z,90.99
2018-10-09T18:16:20.552Z,91.25
2018-10-09T18:18:48.222Z,90.96
2018-10-09T18:21:15.941Z,90.99
2018-10-09T18:23:43.578Z,90.66
2018-10-09T18:26:11.275Z,90.90
2018-10-09T18:28:38.929Z,91.17
2018-10-09T18:31:06.674Z,90.98
2018-10-09T18:33:34.856Z,91.00
2018-10-09T18:36:02.848Z,90.87
2018-10-09T18:38:30.480Z,91.04
2018-10-09T18:40:58.150Z,91.34
2018-10-09T18:43:25.827Z,91.28
2018-10-09T18:45:53.458Z,91.62
2018-10-09T18:48:21.056Z,90.87
2018-10-09T18:50:48.717Z,90.81
2018-10-09T18:53:16.337Z,91.46
2018-10-09T18:55:43.952Z,91.21
2018-10-09T18:58:11.601Z,91.29
2018-10-09T19:00:39.241Z,91.24
2018-10-09T19:03:06.997Z,91.73
2018-10-09T19:05:34.630Z,91.76
2018-10-09T19:08:02.246Z,91.98
2018-10-09T19:10:29.929Z,91.86
2018-10-09T19:12:57.577Z,91.72
2018-10-09T19:15:25.213Z,91.53
2018-10-09T19:17:52.862Z,91.43
2018-10-09T19:20:20.541Z,91.85
2018-10-09T19:22:48.193Z,91.76
2018-10-09T19:25:15.857Z,91.78
2018-10-09T19:27:43.465Z,91.85
2018-10-09T19:30:11.090Z,91.44
2018-10-09T19:32:38.892Z,91.67
2018-10-09T19:35:06.549Z,91.68
2018-10-09T19:37:34.313Z,91.59
2018-10-09T19:40:01.934Z,92.15
2018-10-09T19:42:29.743Z,91.97
2018-10-09T19:44:57.368Z,92.20
2018-10-09T19:47:25.008Z,91.99
2018-10-09T19:49:52.651Z,91.94
2018-10-09T19:52:20.357Z,91.85
2018-10-09T19:54:48.098Z,92.28
2018-10-09T19:57:15.713Z,92.13
2018-10-09T19:59:43.392Z,91.84
2018-10-09T20:02:11.436Z,91.59
2018-10-09T20:04:39.433Z,91.74
2018-10-09T20:07:07.136Z,91.78
2018-10-09T20:09:34.797Z,91.75
2018-10-09T20:12:02.465Z,91.85
2018-10-09T20:14:30.585Z,92.16
2018-10-09T20:16:58.166Z,92.08
2018-10-09T20:19:26.364Z,92.34
2018-10-09T20:21:54.046Z,91.97
2018-10-09T20:24:21.723Z,92.15
2018-10-09T20:26:49.366Z,92.34
2018-10-09T20:29:17.651Z,92.04
2018-10-09T20:31:45.302Z,92.14
2018-10-09T20:34:12.974Z,92.08
2018-10-09T20:36:40.584Z,92.21
2018-10-09T20:39:08.248Z,92.32
2018-10-09T20:41:35.881Z,92.06
2018-10-09T20:44:03.511Z,92.39
2018-10-09T20:46:31.210Z,92.30
2018-10-09T20:48:58.861Z,92.28
2018-10-09T20:51:26.501Z,92.27
2018-10-09T20:53:54.129Z,92.63
2018-10-09T20:56:21.808Z,92.27
2018-10-09T20:58:49.488Z,92.52
2018-10-09T21:01:17.356Z,92.61
2018-10-09T21:03:45.091Z,92.55
2018-10-09T21:06:14.394Z,92.59
2018-10-09T21:08:42.825Z,92.48
2018-10-09T21:11:10.520Z,92.74
2018-10-09T21:13:38.524Z,92.84
2018-10-09T21:16:06.264Z,93.00
2018-10-09T21:18:33.945Z,92.82
2018-10-09T21:21:01.591Z,92.80
2018-10-09T21:23:29.221Z,93.09
2018-10-09T21:25:56.958Z,92.78
2018-10-09T21:28:24.803Z,92.87
2018-10-09T21:30:52.719Z,92.79
2018-10-09T21:33:20.441Z,92.63
2018-10-09T21:35:48.105Z,92.62
2018-10-09T21:38:15.713Z,92.86
2018-10-09T21:40:43.407Z,92.87
2018-10-09T21:43:11.840Z,92.90
2018-10-09T21:45:39.440Z,93.21
2018-10-09T21:48:07.120Z,93.13
2018-10-09T21:50:34.751Z,93.30
2018-10-09T21:53:02.373Z,92.91
2018-10-09T21:55:30.367Z,93.21
2018-10-09T21:57:58.416Z,93.20
2018-10-09T22:00:26.237Z,93.42
2018-10-09T22:02:53.842Z,93.30
2018-10-09T22:05:21.452Z,92.86
2018-10-09T22:07:49.285Z,93.36
2018-10-09T22:10:17.054Z,93.06
2018-10-09T22:12:44.855Z,93.40
2018-10-09T22:15:12.538Z,93.44
2018-10-09T22:17:40.148Z,93.03
2018-10-09T22:20:07.958Z,93.27
2018-10-09T22:22:35.601Z,93.44
2018-10-09T22:25:03.437Z,93.36
2018-10-09T22:27:31.287Z,93.43
2018-10-09T22:29:58.896Z,93.85
2018-10-09T22:32:26.721Z,93.68
2018-10-09T22:34:55.278Z,93.19
2018-10-09T22:37:22.961Z,93.05
2018-10-09T22:39:50.658Z,93.37
2018-10-09T22:42:18.329Z,93.24
2018-10-09T22:44:45.996Z,93.38
2018-10-09T22:47:13.644Z,93.43
2018-10-09T22:49:41.280Z,93.33
2018-10-09T22:52:08.910Z,93.18
2018-10-09T22:54:36.533Z,93.39
2018-10-09T22:57:04.261Z,93.14
2018-10-09T22:59:31.884Z,93.60
2018-10-09T23:01:59.508Z,93.20
2018-10-09T23:04:27.164Z,93.21
2018-10-09T23:06:54.795Z,93.33
2018-10-09T23:09:22.437Z,93.24
2018-10-09T23:11:50.104Z,93.28
2018-10-09T23:14:17.748Z,92.86
2018-10-09T23:16:45.388Z,93.00
2018-10-09T23:19:13.058Z,92.92
2018-10-09T23:21:40.692Z,93.07
2018-10-09T23:24:08.484Z,93.27
2018-10-09T23:26:36.121Z,93.16
2018-10-09T23:29:03.833Z,93.40
2018-10-09T23:31:31.455Z,93.08
2018-10-09T23:33:59.109Z,93.16
2018-10-09T23:36:26.769Z,93.04
2018-10-09T23:38:54.392Z,92.67
2018-10-09T23:41:22.161Z,93.02
2018-10-09T23:43:49.800Z,92.91
2018-10-09T23:46:17.429Z,92.85
2018-10-09T23:48:45.105Z,92.85
2018-10-09T23:51:12.798Z,92.93
2018-10-09T23:53:40.439Z,93.12
2018-10-09T23:56:08.064Z,93.09
2018-10-09T23:58:35.771Z,93.24
